Terminal Aerodrome Forecast
Issued by NWS Bismarck, ND

Home | Current Version | Previous Version | Graphics & Text | Print | Product List | Glossary On
Versions: 1 2 3 4 5 6 7 8 9 10 11 12 13 14 15 16 17
170
FTUS43 KBIS 201128
TAFBIS
TAF
KBIS 201128Z 2012/2112 14006KT P6SM FEW250
     FM201600 17012G20KT P6SM FEW250
     FM202300 16010KT P6SM FEW200 WS020/18032KT
     FM210400 21011KT P6SM FEW250 WS020/22040KT
     FM210600 25015G21KT P6SM FEW250 WS020/29045KT
     FM210800 29027G37KT P6SM SKC WS020/28040KT=

USA.gov is the U.S. government's official web portal to all federal, state and local government web resources and services.